sensor_id;sensor_type;location;lat;lon;timestamp;P1;durP1;ratioP1;P2;durP2;ratioP2
12048;SDS011;6085;49.452;8.502;2023-08-30T00:02:05;2.42;;;2.22;;
12048;SDS011;6085;49.452;8.502;2023-08-30T00:06:08;2.08;;;1.83;;
12048;SDS011;6085;49.452;8.502;2023-08-30T00:10:12;2.20;;;1.95;;
12048;SDS011;6085;49.452;8.502;2023-08-30T00:14:14;1.98;;;1.83;;
12048;SDS011;6085;49.452;8.502;2023-08-30T00:18:15;1.98;;;1.60;;
12048;SDS011;6085;49.452;8.502;2023-08-30T00:22:18;1.70;;;1.60;;
12048;SDS011;6085;49.452;8.502;2023-08-30T00:26:23;1.40;;;1.30;;
12048;SDS011;6085;49.452;8.502;2023-08-30T00:30:26;1.52;;;1.42;;
12048;SDS011;6085;49.452;8.502;2023-08-30T00:34:28;1.38;;;1.27;;
12048;SDS011;6085;49.452;8.502;2023-08-30T00:38:32;1.58;;;1.48;;
12048;SDS011;6085;49.452;8.502;2023-08-30T00:42:36;1.23;;;1.13;;
12048;SDS011;6085;49.452;8.502;2023-08-30T00:46:40;1.50;;;1.40;;
12048;SDS011;6085;49.452;8.502;2023-08-30T00:50:43;1.25;;;1.25;;
12048;SDS011;6085;49.452;8.502;2023-08-30T00:54:45;1.88;;;1.77;;
12048;SDS011;6085;49.452;8.502;2023-08-30T00:58:49;1.58;;;1.48;;
12048;SDS011;6085;49.452;8.502;2023-08-30T01:02:51;1.33;;;1.27;;
12048;SDS011;6085;49.452;8.502;2023-08-30T01:06:54;1.60;;;1.48;;
12048;SDS011;6085;49.452;8.502;2023-08-30T01:10:59;2.50;;;1.70;;
12048;SDS011;6085;49.452;8.502;2023-08-30T01:15:08;1.73;;;1.63;;
12048;SDS011;6085;49.452;8.502;2023-08-30T01:19:18;3.17;;;2.10;;
12048;SDS011;6085;49.452;8.502;2023-08-30T01:23:39;2.90;;;2.60;;
12048;SDS011;6085;49.452;8.502;2023-08-30T01:27:48;2.00;;;1.90;;
12048;SDS011;6085;49.452;8.502;2023-08-30T01:31:51;2.38;;;1.88;;
12048;SDS011;6085;49.452;8.502;2023-08-30T01:35:57;3.30;;;2.10;;
12048;SDS011;6085;49.452;8.502;2023-08-30T01:40:01;2.38;;;2.15;;
12048;SDS011;6085;49.452;8.502;2023-08-30T01:44:06;3.13;;;2.30;;
12048;SDS011;6085;49.452;8.502;2023-08-30T01:48:10;2.25;;;1.88;;
12048;SDS011;6085;49.452;8.502;2023-08-30T01:52:14;2.05;;;1.85;;
12048;SDS011;6085;49.452;8.502;2023-08-30T01:56:17;2.00;;;1.90;;
12048;SDS011;6085;49.452;8.502;2023-08-30T02:00:21;1.80;;;1.70;;
12048;SDS011;6085;49.452;8.502;2023-08-30T02:04:23;2.10;;;2.00;;
12048;SDS011;6085;49.452;8.502;2023-08-30T02:08:25;1.90;;;1.80;;
12048;SDS011;6085;49.452;8.502;2023-08-30T02:12:33;2.00;;;1.90;;
12048;SDS011;6085;49.452;8.502;2023-08-30T02:16:42;2.50;;;2.30;;
12048;SDS011;6085;49.452;8.502;2023-08-30T02:20:44;2.28;;;2.10;;
12048;SDS011;6085;49.452;8.502;2023-08-30T02:24:47;2.75;;;2.28;;
12048;SDS011;6085;49.452;8.502;2023-08-30T02:28:49;2.45;;;2.25;;
12048;SDS011;6085;49.452;8.502;2023-08-30T02:32:52;3.42;;;2.65;;
12048;SDS011;6085;49.452;8.502;2023-08-30T02:36:54;2.33;;;2.22;;
12048;SDS011;6085;49.452;8.502;2023-08-30T02:40:56;2.28;;;2.10;;
12048;SDS011;6085;49.452;8.502;2023-08-30T02:44:58;2.92;;;2.67;;
12048;SDS011;6085;49.452;8.502;2023-08-30T02:49:02;3.17;;;2.85;;
12048;SDS011;6085;49.452;8.502;2023-08-30T02:53:03;2.30;;;2.10;;
12048;SDS011;6085;49.452;8.502;2023-08-30T02:57:08;2.70;;;2.33;;
12048;SDS011;6085;49.452;8.502;2023-08-30T03:01:10;2.13;;;2.00;;
12048;SDS011;6085;49.452;8.502;2023-08-30T03:05:13;2.33;;;2.13;;
12048;SDS011;6085;49.452;8.502;2023-08-30T03:09:15;3.22;;;2.30;;
12048;SDS011;6085;49.452;8.502;2023-08-30T03:13:17;3.00;;;2.80;;
12048;SDS011;6085;49.452;8.502;2023-08-30T03:17:19;2.53;;;2.33;;
12048;SDS011;6085;49.452;8.502;2023-08-30T03:21:22;4.07;;;2.78;;
12048;SDS011;6085;49.452;8.502;2023-08-30T03:25:24;3.03;;;2.65;;
12048;SDS011;6085;49.452;8.502;2023-08-30T03:29:29;2.95;;;2.65;;
12048;SDS011;6085;49.452;8.502;2023-08-30T03:33:31;2.10;;;1.92;;
12048;SDS011;6085;49.452;8.502;2023-08-30T03:37:34;2.72;;;2.53;;
12048;SDS011;6085;49.452;8.502;2023-08-30T03:41:36;3.17;;;2.60;;
12048;SDS011;6085;49.452;8.502;2023-08-30T03:45:38;2.28;;;2.17;;
12048;SDS011;6085;49.452;8.502;2023-08-30T03:49:40;2.50;;;2.30;;
12048;SDS011;6085;49.452;8.502;2023-08-30T03:53:43;2.92;;;2.72;;
12048;SDS011;6085;49.452;8.502;2023-08-30T03:57:45;2.72;;;2.53;;
12048;SDS011;6085;49.452;8.502;2023-08-30T04:01:47;2.63;;;2.42;;
12048;SDS011;6085;49.452;8.502;2023-08-30T04:05:54;5.80;;;2.92;;
12048;SDS011;6085;49.452;8.502;2023-08-30T04:09:58;2.90;;;2.67;;
12048;SDS011;6085;49.452;8.502;2023-08-30T04:14:02;3.25;;;3.03;;
12048;SDS011;6085;49.452;8.502;2023-08-30T04:18:04;4.13;;;2.65;;
12048;SDS011;6085;49.452;8.502;2023-08-30T04:22:07;2.97;;;2.78;;
12048;SDS011;6085;49.452;8.502;2023-08-30T04:26:10;2.90;;;2.70;;
12048;SDS011;6085;49.452;8.502;2023-08-30T04:30:13;3.13;;;2.90;;
12048;SDS011;6085;49.452;8.502;2023-08-30T04:34:15;2.25;;;2.05;;
12048;SDS011;6085;49.452;8.502;2023-08-30T04:38:17;3.17;;;2.88;;
12048;SDS011;6085;49.452;8.502;2023-08-30T04:42:21;3.45;;;3.10;;
12048;SDS011;6085;49.452;8.502;2023-08-30T04:46:23;3.22;;;2.80;;
12048;SDS011;6085;49.452;8.502;2023-08-30T04:50:24;3.83;;;3.53;;
12048;SDS011;6085;49.452;8.502;2023-08-30T04:54:26;3.25;;;2.97;;
12048;SDS011;6085;49.452;8.502;2023-08-30T04:58:30;3.13;;;2.83;;
12048;SDS011;6085;49.452;8.502;2023-08-30T05:02:32;3.85;;;3.53;;
12048;SDS011;6085;49.452;8.502;2023-08-30T05:06:34;3.63;;;3.22;;
12048;SDS011;6085;49.452;8.502;2023-08-30T05:10:36;4.63;;;3.95;;
12048;SDS011;6085;49.452;8.502;2023-08-30T05:14:39;3.72;;;3.30;;
12048;SDS011;6085;49.452;8.502;2023-08-30T05:18:41;3.03;;;2.72;;
12048;SDS011;6085;49.452;8.502;2023-08-30T05:22:43;5.63;;;3.53;;
12048;SDS011;6085;49.452;8.502;2023-08-30T05:26:45;3.25;;;2.95;;
12048;SDS011;6085;49.452;8.502;2023-08-30T05:30:49;3.30;;;3.00;;
12048;SDS011;6085;49.452;8.502;2023-08-30T05:34:51;4.07;;;3.63;;
12048;SDS011;6085;49.452;8.502;2023-08-30T05:38:53;3.80;;;3.40;;
12048;SDS011;6085;49.452;8.502;2023-08-30T05:42:55;4.07;;;3.17;;
12048;SDS011;6085;49.452;8.502;2023-08-30T05:46:58;5.18;;;4.22;;
12048;SDS011;6085;49.452;8.502;2023-08-30T05:51:00;3.17;;;2.88;;
12048;SDS011;6085;49.452;8.502;2023-08-30T05:55:03;5.57;;;3.58;;
12048;SDS011;6085;49.452;8.502;2023-08-30T05:59:05;2.90;;;2.70;;
12048;SDS011;6085;49.452;8.502;2023-08-30T06:03:09;3.90;;;3.50;;
12048;SDS011;6085;49.452;8.502;2023-08-30T06:07:11;3.95;;;3.55;;
12048;SDS011;6085;49.452;8.502;2023-08-30T06:11:13;3.58;;;3.28;;
12048;SDS011;6085;49.452;8.502;2023-08-30T06:15:15;6.20;;;4.00;;
12048;SDS011;6085;49.452;8.502;2023-08-30T06:19:18;4.03;;;3.63;;
12048;SDS011;6085;49.452;8.502;2023-08-30T06:23:21;3.05;;;2.85;;
12048;SDS011;6085;49.452;8.502;2023-08-30T06:27:23;2.80;;;2.60;;
12048;SDS011;6085;49.452;8.502;2023-08-30T06:31:25;3.65;;;3.22;;
12048;SDS011;6085;49.452;8.502;2023-08-30T06:35:30;2.63;;;2.42;;
12048;SDS011;6085;49.452;8.502;2023-08-30T06:39:32;3.20;;;2.90;;
12048;SDS011;6085;49.452;8.502;2023-08-30T06:43:37;3.03;;;2.70;;
12048;SDS011;6085;49.452;8.502;2023-08-30T06:47:39;3.30;;;3.00;;
12048;SDS011;6085;49.452;8.502;2023-08-30T06:51:42;3.05;;;2.75;;
12048;SDS011;6085;49.452;8.502;2023-08-30T06:55:44;3.00;;;2.70;;
12048;SDS011;6085;49.452;8.502;2023-08-30T06:59:46;3.25;;;2.95;;
12048;SDS011;6085;49.452;8.502;2023-08-30T07:03:48;2.33;;;2.20;;
12048;SDS011;6085;49.452;8.502;2023-08-30T07:07:51;2.90;;;2.60;;
12048;SDS011;6085;49.452;8.502;2023-08-30T07:11:53;3.35;;;3.10;;
12048;SDS011;6085;49.452;8.502;2023-08-30T07:15:55;2.70;;;2.50;;
12048;SDS011;6085;49.452;8.502;2023-08-30T07:19:57;3.35;;;2.55;;
12048;SDS011;6085;49.452;8.502;2023-08-30T07:24:00;2.80;;;2.60;;
12048;SDS011;6085;49.452;8.502;2023-08-30T07:28:02;3.30;;;2.65;;
12048;SDS011;6085;49.452;8.502;2023-08-30T07:32:05;2.90;;;2.63;;
12048;SDS011;6085;49.452;8.502;2023-08-30T07:36:07;2.65;;;2.45;;
12048;SDS011;6085;49.452;8.502;2023-08-30T07:40:11;3.13;;;2.83;;
12048;SDS011;6085;49.452;8.502;2023-08-30T07:44:13;2.60;;;2.40;;
12048;SDS011;6085;49.452;8.502;2023-08-30T07:48:16;3.25;;;2.70;;
12048;SDS011;6085;49.452;8.502;2023-08-30T07:52:18;3.28;;;2.70;;
12048;SDS011;6085;49.452;8.502;2023-08-30T07:56:21;3.65;;;2.58;;
12048;SDS011;6085;49.452;8.502;2023-08-30T08:00:23;3.35;;;2.95;;
12048;SDS011;6085;49.452;8.502;2023-08-30T08:04:25;2.97;;;2.75;;
12048;SDS011;6085;49.452;8.502;2023-08-30T08:08:27;2.78;;;2.58;;
12048;SDS011;6085;49.452;8.502;2023-08-30T08:12:32;3.13;;;2.67;;
12048;SDS011;6085;49.452;8.502;2023-08-30T08:16:34;3.25;;;3.00;;
12048;SDS011;6085;49.452;8.502;2023-08-30T08:20:36;3.58;;;3.03;;
12048;SDS011;6085;49.452;8.502;2023-08-30T08:24:39;2.90;;;2.60;;
12048;SDS011;6085;49.452;8.502;2023-08-30T08:28:42;2.88;;;2.58;;
12048;SDS011;6085;49.452;8.502;2023-08-30T08:32:45;3.30;;;3.00;;
12048;SDS011;6085;49.452;8.502;2023-08-30T08:36:47;2.78;;;2.58;;
12048;SDS011;6085;49.452;8.502;2023-08-30T08:40:49;3.35;;;2.55;;
12048;SDS011;6085;49.452;8.502;2023-08-30T08:44:56;2.85;;;2.60;;
12048;SDS011;6085;49.452;8.502;2023-08-30T08:49:00;2.95;;;2.65;;
12048;SDS011;6085;49.452;8.502;2023-08-30T08:53:06;2.40;;;2.20;;
12048;SDS011;6085;49.452;8.502;2023-08-30T08:57:09;3.92;;;2.60;;
12048;SDS011;6085;49.452;8.502;2023-08-30T09:01:12;2.42;;;2.22;;
12048;SDS011;6085;49.452;8.502;2023-08-30T09:05:15;2.00;;;1.90;;
12048;SDS011;6085;49.452;8.502;2023-08-30T09:09:17;2.50;;;2.30;;
12048;SDS011;6085;49.452;8.502;2023-08-30T09:13:19;2.55;;;2.35;;
12048;SDS011;6085;49.452;8.502;2023-08-30T09:17:34;2.38;;;2.17;;
12048;SDS011;6085;49.452;8.502;2023-08-30T09:21:37;2.40;;;2.20;;
12048;SDS011;6085;49.452;8.502;2023-08-30T09:25:39;2.40;;;2.20;;
12048;SDS011;6085;49.452;8.502;2023-08-30T09:29:41;2.28;;;2.00;;
12048;SDS011;6085;49.452;8.502;2023-08-30T09:33:45;2.38;;;2.20;;
12048;SDS011;6085;49.452;8.502;2023-08-30T09:37:49;2.05;;;1.95;;
12048;SDS011;6085;49.452;8.502;2023-08-30T09:41:51;2.75;;;2.42;;
12048;SDS011;6085;49.452;8.502;2023-08-30T09:45:55;2.40;;;2.20;;
12048;SDS011;6085;49.452;8.502;2023-08-30T09:50:00;1.88;;;1.77;;
12048;SDS011;6085;49.452;8.502;2023-08-30T09:54:04;2.20;;;2.00;;
12048;SDS011;6085;49.452;8.502;2023-08-30T09:58:06;1.80;;;1.70;;
12048;SDS011;6085;49.452;8.502;2023-08-30T10:02:09;1.90;;;1.67;;
12048;SDS011;6085;49.452;8.502;2023-08-30T10:06:13;2.08;;;1.98;;
12048;SDS011;6085;49.452;8.502;2023-08-30T10:10:15;2.83;;;2.15;;
12048;SDS011;6085;49.452;8.502;2023-08-30T10:14:18;1.58;;;1.48;;
12048;SDS011;6085;49.452;8.502;2023-08-30T10:18:20;2.10;;;1.90;;
12048;SDS011;6085;49.452;8.502;2023-08-30T10:22:27;2.25;;;2.15;;
12048;SDS011;6085;49.452;8.502;2023-08-30T10:26:30;2.30;;;2.10;;
12048;SDS011;6085;49.452;8.502;2023-08-30T10:30:32;2.08;;;1.90;;
12048;SDS011;6085;49.452;8.502;2023-08-30T10:34:35;1.58;;;1.48;;
12048;SDS011;6085;49.452;8.502;2023-08-30T10:38:39;1.70;;;1.60;;
12048;SDS011;6085;49.452;8.502;2023-08-30T10:43:00;2.22;;;1.83;;
12048;SDS011;6085;49.452;8.502;2023-08-30T10:47:03;1.60;;;1.40;;
12048;SDS011;6085;49.452;8.502;2023-08-30T10:51:07;1.70;;;1.60;;
12048;SDS011;6085;49.452;8.502;2023-08-30T10:55:23;1.80;;;1.70;;
12048;SDS011;6085;49.452;8.502;2023-08-30T10:59:25;1.90;;;1.75;;
12048;SDS011;6085;49.452;8.502;2023-08-30T11:03:28;1.70;;;1.60;;
12048;SDS011;6085;49.452;8.502;2023-08-30T11:07:30;1.90;;;1.70;;
12048;SDS011;6085;49.452;8.502;2023-08-30T11:11:33;1.35;;;1.33;;
12048;SDS011;6085;49.452;8.502;2023-08-30T11:15:36;1.90;;;1.80;;
12048;SDS011;6085;49.452;8.502;2023-08-30T11:19:38;1.98;;;1.73;;
12048;SDS011;6085;49.452;8.502;2023-08-30T11:23:40;1.20;;;1.20;;
12048;SDS011;6085;49.452;8.502;2023-08-30T11:27:43;1.48;;;1.38;;
12048;SDS011;6085;49.452;8.502;2023-08-30T11:31:45;1.45;;;1.35;;
12048;SDS011;6085;49.452;8.502;2023-08-30T11:35:48;1.50;;;1.40;;
12048;SDS011;6085;49.452;8.502;2023-08-30T11:39:52;1.25;;;1.00;;
12048;SDS011;6085;49.452;8.502;2023-08-30T11:43:57;1.33;;;1.23;;
12048;SDS011;6085;49.452;8.502;2023-08-30T11:48:00;1.30;;;1.20;;
12048;SDS011;6085;49.452;8.502;2023-08-30T11:52:03;1.00;;;1.00;;
12048;SDS011;6085;49.452;8.502;2023-08-30T11:56:06;1.13;;;1.05;;
12048;SDS011;6085;49.452;8.502;2023-08-30T12:00:13;0.90;;;0.90;;
12048;SDS011;6085;49.452;8.502;2023-08-30T12:04:15;1.38;;;1.27;;
12048;SDS011;6085;49.452;8.502;2023-08-30T12:08:19;1.00;;;1.00;;
12048;SDS011;6085;49.452;8.502;2023-08-30T12:12:22;1.30;;;1.20;;
12048;SDS011;6085;49.452;8.502;2023-08-30T12:16:26;1.33;;;1.20;;
12048;SDS011;6085;49.452;8.502;2023-08-30T12:20:28;1.02;;;1.02;;
12048;SDS011;6085;49.452;8.502;2023-08-30T12:24:39;1.83;;;1.10;;
12048;SDS011;6085;49.452;8.502;2023-08-30T12:28:42;0.88;;;0.88;;
12048;SDS011;6085;49.452;8.502;2023-08-30T12:32:46;2.33;;;1.40;;
12048;SDS011;6085;49.452;8.502;2023-08-30T12:36:48;1.38;;;1.30;;
12048;SDS011;6085;49.452;8.502;2023-08-30T12:40:51;1.30;;;1.20;;
12048;SDS011;6085;49.452;8.502;2023-08-30T12:44:54;1.08;;;1.08;;
12048;SDS011;6085;49.452;8.502;2023-08-30T12:48:57;1.20;;;1.10;;
12048;SDS011;6085;49.452;8.502;2023-08-30T12:52:59;1.55;;;0.88;;
12048;SDS011;6085;49.452;8.502;2023-08-30T12:57:01;0.90;;;0.90;;
12048;SDS011;6085;49.452;8.502;2023-08-30T13:01:03;1.40;;;1.30;;
12048;SDS011;6085;49.452;8.502;2023-08-30T13:05:07;1.05;;;1.02;;
12048;SDS011;6085;49.452;8.502;2023-08-30T13:09:09;1.33;;;1.10;;
12048;SDS011;6085;49.452;8.502;2023-08-30T13:13:11;1.13;;;1.10;;
12048;SDS011;6085;49.452;8.502;2023-08-30T13:17:13;0.90;;;0.80;;
12048;SDS011;6085;49.452;8.502;2023-08-30T13:21:18;0.85;;;0.85;;
12048;SDS011;6085;49.452;8.502;2023-08-30T13:25:21;0.95;;;0.88;;
12048;SDS011;6085;49.452;8.502;2023-08-30T13:29:22;1.60;;;1.17;;
12048;SDS011;6085;49.452;8.502;2023-08-30T13:33:24;1.08;;;1.08;;
12048;SDS011;6085;49.452;8.502;2023-08-30T13:37:28;1.00;;;1.00;;
12048;SDS011;6085;49.452;8.502;2023-08-30T13:41:30;0.85;;;0.85;;
12048;SDS011;6085;49.452;8.502;2023-08-30T13:45:32;0.95;;;0.95;;
12048;SDS011;6085;49.452;8.502;2023-08-30T13:49:35;0.90;;;0.90;;
12048;SDS011;6085;49.452;8.502;2023-08-30T13:53:38;1.88;;;1.10;;
12048;SDS011;6085;49.452;8.502;2023-08-30T13:57:40;1.33;;;1.23;;
12048;SDS011;6085;49.452;8.502;2023-08-30T14:01:42;0.90;;;0.90;;
12048;SDS011;6085;49.452;8.502;2023-08-30T14:05:44;1.00;;;1.00;;
12048;SDS011;6085;49.452;8.502;2023-08-30T14:09:48;0.68;;;0.68;;
12048;SDS011;6085;49.452;8.502;2023-08-30T14:13:50;1.70;;;1.38;;
12048;SDS011;6085;49.452;8.502;2023-08-30T14:17:52;1.02;;;0.90;;
12048;SDS011;6085;49.452;8.502;2023-08-30T14:21:55;1.50;;;1.13;;
12048;SDS011;6085;49.452;8.502;2023-08-30T14:26:00;0.88;;;0.80;;
12048;SDS011;6085;49.452;8.502;2023-08-30T14:30:09;1.52;;;0.88;;
12048;SDS011;6085;49.452;8.502;2023-08-30T14:34:11;1.27;;;1.08;;
12048;SDS011;6085;49.452;8.502;2023-08-30T14:38:13;1.00;;;1.00;;
12048;SDS011;6085;49.452;8.502;2023-08-30T14:42:16;1.88;;;1.10;;
12048;SDS011;6085;49.452;8.502;2023-08-30T14:46:18;0.98;;;0.98;;
12048;SDS011;6085;49.452;8.502;2023-08-30T14:50:20;1.15;;;1.05;;
12048;SDS011;6085;49.452;8.502;2023-08-30T14:54:22;2.05;;;1.27;;
12048;SDS011;6085;49.452;8.502;2023-08-30T14:58:25;0.93;;;0.93;;
12048;SDS011;6085;49.452;8.502;2023-08-30T15:02:27;1.58;;;1.33;;
12048;SDS011;6085;49.452;8.502;2023-08-30T15:06:31;2.13;;;1.20;;
12048;SDS011;6085;49.452;8.502;2023-08-30T15:10:33;1.50;;;1.20;;
12048;SDS011;6085;49.452;8.502;2023-08-30T15:14:36;1.58;;;1.25;;
12048;SDS011;6085;49.452;8.502;2023-08-30T15:18:40;2.28;;;1.20;;
12048;SDS011;6085;49.452;8.502;2023-08-30T15:22:42;1.77;;;1.20;;
12048;SDS011;6085;49.452;8.502;2023-08-30T15:26:44;1.73;;;1.45;;
12048;SDS011;6085;49.452;8.502;2023-08-30T15:30:49;1.10;;;1.00;;
12048;SDS011;6085;49.452;8.502;2023-08-30T15:34:51;0.95;;;0.93;;
12048;SDS011;6085;49.452;8.502;2023-08-30T15:38:53;1.40;;;1.30;;
12048;SDS011;6085;49.452;8.502;2023-08-30T15:42:55;0.93;;;0.93;;
12048;SDS011;6085;49.452;8.502;2023-08-30T15:46:59;1.73;;;1.15;;
12048;SDS011;6085;49.452;8.502;2023-08-30T15:51:00;1.80;;;1.30;;
12048;SDS011;6085;49.452;8.502;2023-08-30T15:55:03;1.30;;;1.20;;
12048;SDS011;6085;49.452;8.502;2023-08-30T15:59:05;1.58;;;1.40;;
12048;SDS011;6085;49.452;8.502;2023-08-30T16:03:09;2.05;;;1.80;;
12048;SDS011;6085;49.452;8.502;2023-08-30T16:07:11;1.25;;;1.15;;
12048;SDS011;6085;49.452;8.502;2023-08-30T16:11:13;1.85;;;1.20;;
12048;SDS011;6085;49.452;8.502;2023-08-30T16:15:15;1.20;;;1.10;;
12048;SDS011;6085;49.452;8.502;2023-08-30T16:19:18;1.52;;;1.40;;
12048;SDS011;6085;49.452;8.502;2023-08-30T16:23:24;1.38;;;1.27;;
12048;SDS011;6085;49.452;8.502;2023-08-30T16:27:25;1.50;;;1.40;;
12048;SDS011;6085;49.452;8.502;2023-08-30T16:31:28;1.55;;;1.45;;
12048;SDS011;6085;49.452;8.502;2023-08-30T16:35:32;1.15;;;1.08;;
12048;SDS011;6085;49.452;8.502;2023-08-30T16:39:34;1.50;;;1.40;;
12048;SDS011;6085;49.452;8.502;2023-08-30T16:43:36;2.05;;;1.33;;
12048;SDS011;6085;49.452;8.502;2023-08-30T16:47:38;1.20;;;1.10;;
12048;SDS011;6085;49.452;8.502;2023-08-30T16:51:41;1.58;;;1.48;;
12048;SDS011;6085;49.452;8.502;2023-08-30T16:55:43;1.20;;;1.10;;
12048;SDS011;6085;49.452;8.502;2023-08-30T16:59:45;3.33;;;1.27;;
12048;SDS011;6085;49.452;8.502;2023-08-30T17:03:47;1.25;;;1.17;;
12048;SDS011;6085;49.452;8.502;2023-08-30T17:07:51;2.25;;;1.23;;
12048;SDS011;6085;49.452;8.502;2023-08-30T17:11:54;1.63;;;1.30;;
12048;SDS011;6085;49.452;8.502;2023-08-30T17:15:58;1.42;;;1.10;;
12048;SDS011;6085;49.452;8.502;2023-08-30T17:20:01;1.20;;;1.05;;
12048;SDS011;6085;49.452;8.502;2023-08-30T17:24:05;1.48;;;1.17;;
12048;SDS011;6085;49.452;8.502;2023-08-30T17:28:08;1.40;;;1.20;;
12048;SDS011;6085;49.452;8.502;2023-08-30T17:32:10;2.60;;;1.58;;
12048;SDS011;6085;49.452;8.502;2023-08-30T17:36:12;1.52;;;1.38;;
12048;SDS011;6085;49.452;8.502;2023-08-30T17:40:15;1.75;;;1.40;;
12048;SDS011;6085;49.452;8.502;2023-08-30T17:44:17;1.55;;;1.42;;
12048;SDS011;6085;49.452;8.502;2023-08-30T17:48:20;1.40;;;1.08;;
12048;SDS011;6085;49.452;8.502;2023-08-30T17:52:22;1.58;;;1.48;;
12048;SDS011;6085;49.452;8.502;2023-08-30T17:56:25;1.45;;;1.30;;
12048;SDS011;6085;49.452;8.502;2023-08-30T18:00:27;2.30;;;1.40;;
12048;SDS011;6085;49.452;8.502;2023-08-30T18:04:30;1.80;;;1.40;;
12048;SDS011;6085;49.452;8.502;2023-08-30T18:08:33;1.60;;;1.50;;
12048;SDS011;6085;49.452;8.502;2023-08-30T18:12:36;3.80;;;1.20;;
12048;SDS011;6085;49.452;8.502;2023-08-30T18:16:38;0.65;;;0.60;;
12048;SDS011;6085;49.452;8.502;2023-08-30T18:20:40;0.50;;;0.50;;
12048;SDS011;6085;49.452;8.502;2023-08-30T18:24:43;0.50;;;0.50;;
12048;SDS011;6085;49.452;8.502;2023-08-30T18:28:47;0.35;;;0.35;;
12048;SDS011;6085;49.452;8.502;2023-08-30T18:32:49;0.60;;;0.60;;
12048;SDS011;6085;49.452;8.502;2023-08-30T18:36:53;0.43;;;0.40;;
12048;SDS011;6085;49.452;8.502;2023-08-30T18:40:56;0.77;;;0.70;;
12048;SDS011;6085;49.452;8.502;2023-08-30T18:44:59;0.60;;;0.60;;
12048;SDS011;6085;49.452;8.502;2023-08-30T18:49:01;0.85;;;0.70;;
12048;SDS011;6085;49.452;8.502;2023-08-30T18:53:04;1.95;;;0.80;;
12048;SDS011;6085;49.452;8.502;2023-08-30T18:57:06;3.58;;;0.90;;
12048;SDS011;6085;49.452;8.502;2023-08-30T19:01:11;0.80;;;0.80;;
12048;SDS011;6085;49.452;8.502;2023-08-30T19:05:14;1.52;;;0.98;;
12048;SDS011;6085;49.452;8.502;2023-08-30T19:09:16;0.93;;;0.70;;
12048;SDS011;6085;49.452;8.502;2023-08-30T19:13:19;0.52;;;0.52;;
12048;SDS011;6085;49.452;8.502;2023-08-30T19:17:22;4.53;;;0.90;;
12048;SDS011;6085;49.452;8.502;2023-08-30T19:21:24;0.60;;;0.60;;
12048;SDS011;6085;49.452;8.502;2023-08-30T19:25:26;1.98;;;0.95;;
12048;SDS011;6085;49.452;8.502;2023-08-30T19:29:30;1.17;;;0.90;;
12048;SDS011;6085;49.452;8.502;2023-08-30T19:33:34;0.80;;;0.75;;
12048;SDS011;6085;49.452;8.502;2023-08-30T19:37:36;0.60;;;0.60;;
12048;SDS011;6085;49.452;8.502;2023-08-30T19:41:38;1.33;;;0.80;;
12048;SDS011;6085;49.452;8.502;2023-08-30T19:45:40;0.80;;;0.80;;
12048;SDS011;6085;49.452;8.502;2023-08-30T19:49:43;0.70;;;0.70;;
12048;SDS011;6085;49.452;8.502;2023-08-30T19:53:45;0.60;;;0.60;;
12048;SDS011;6085;49.452;8.502;2023-08-30T19:57:49;0.80;;;0.80;;
12048;SDS011;6085;49.452;8.502;2023-08-30T20:01:51;1.52;;;0.88;;
12048;SDS011;6085;49.452;8.502;2023-08-30T20:05:55;0.82;;;0.60;;
12048;SDS011;6085;49.452;8.502;2023-08-30T20:09:57;1.23;;;1.13;;
12048;SDS011;6085;49.452;8.502;2023-08-30T20:13:59;1.98;;;1.13;;
12048;SDS011;6085;49.452;8.502;2023-08-30T20:18:02;1.27;;;1.20;;
12048;SDS011;6085;49.452;8.502;2023-08-30T20:22:05;2.38;;;1.08;;
12048;SDS011;6085;49.452;8.502;2023-08-30T20:26:09;1.02;;;1.02;;
12048;SDS011;6085;49.452;8.502;2023-08-30T20:30:12;1.27;;;1.17;;
12048;SDS011;6085;49.452;8.502;2023-08-30T20:34:15;1.42;;;1.30;;
12048;SDS011;6085;49.452;8.502;2023-08-30T20:38:19;1.52;;;1.42;;
12048;SDS011;6085;49.452;8.502;2023-08-30T20:42:22;1.08;;;0.90;;
12048;SDS011;6085;49.452;8.502;2023-08-30T20:46:24;1.80;;;1.15;;
12048;SDS011;6085;49.452;8.502;2023-08-30T20:50:27;1.92;;;1.50;;
12048;SDS011;6085;49.452;8.502;2023-08-30T20:54:30;1.70;;;1.60;;
12048;SDS011;6085;49.452;8.502;2023-08-30T20:58:32;1.65;;;1.20;;
12048;SDS011;6085;49.452;8.502;2023-08-30T21:02:35;1.40;;;1.30;;
12048;SDS011;6085;49.452;8.502;2023-08-30T21:06:37;1.30;;;1.20;;
12048;SDS011;6085;49.452;8.502;2023-08-30T21:10:40;2.28;;;1.27;;
12048;SDS011;6085;49.452;8.502;2023-08-30T21:14:43;1.58;;;1.17;;
12048;SDS011;6085;49.452;8.502;2023-08-30T21:18:45;1.30;;;1.10;;
12048;SDS011;6085;49.452;8.502;2023-08-30T21:22:47;1.10;;;1.10;;
12048;SDS011;6085;49.452;8.502;2023-08-30T21:26:50;1.52;;;1.20;;
12048;SDS011;6085;49.452;8.502;2023-08-30T21:30:52;1.30;;;1.20;;
12048;SDS011;6085;49.452;8.502;2023-08-30T21:34:56;1.58;;;1.48;;
12048;SDS011;6085;49.452;8.502;2023-08-30T21:38:58;1.10;;;1.10;;
12048;SDS011;6085;49.452;8.502;2023-08-30T21:43:01;1.02;;;1.00;;
12048;SDS011;6085;49.452;8.502;2023-08-30T21:47:03;1.23;;;1.00;;
12048;SDS011;6085;49.452;8.502;2023-08-30T21:51:05;1.10;;;1.10;;
12048;SDS011;6085;49.452;8.502;2023-08-30T21:55:07;4.25;;;1.10;;
12048;SDS011;6085;49.452;8.502;2023-08-30T21:59:12;1.88;;;1.20;;
12048;SDS011;6085;49.452;8.502;2023-08-30T22:03:14;2.05;;;1.20;;
12048;SDS011;6085;49.452;8.502;2023-08-30T22:07:18;2.40;;;1.05;;
12048;SDS011;6085;49.452;8.502;2023-08-30T22:11:19;1.00;;;1.00;;
12048;SDS011;6085;49.452;8.502;2023-08-30T22:15:23;1.02;;;1.02;;
12048;SDS011;6085;49.452;8.502;2023-08-30T22:19:26;1.15;;;0.95;;
12048;SDS011;6085;49.452;8.502;2023-08-30T22:23:28;1.58;;;0.93;;
12048;SDS011;6085;49.452;8.502;2023-08-30T22:27:30;2.35;;;1.30;;
12048;SDS011;6085;49.452;8.502;2023-08-30T22:31:34;1.30;;;1.20;;
12048;SDS011;6085;49.452;8.502;2023-08-30T22:35:36;2.05;;;1.00;;
12048;SDS011;6085;49.452;8.502;2023-08-30T22:39:37;1.33;;;1.27;;
12048;SDS011;6085;49.452;8.502;2023-08-30T22:43:39;0.98;;;0.98;;
12048;SDS011;6085;49.452;8.502;2023-08-30T22:47:43;1.40;;;1.30;;
12048;SDS011;6085;49.452;8.502;2023-08-30T22:51:45;2.08;;;1.10;;
12048;SDS011;6085;49.452;8.502;2023-08-30T22:55:47;1.10;;;1.10;;
12048;SDS011;6085;49.452;8.502;2023-08-30T22:59:49;1.17;;;1.08;;
12048;SDS011;6085;49.452;8.502;2023-08-30T23:03:52;1.42;;;1.30;;
12048;SDS011;6085;49.452;8.502;2023-08-30T23:07:56;1.48;;;1.27;;
12048;SDS011;6085;49.452;8.502;2023-08-30T23:11:58;1.50;;;1.23;;
12048;SDS011;6085;49.452;8.502;2023-08-30T23:16:00;1.00;;;1.00;;
12048;SDS011;6085;49.452;8.502;2023-08-30T23:20:04;1.38;;;1.27;;
12048;SDS011;6085;49.452;8.502;2023-08-30T23:24:10;0.93;;;0.93;;
12048;SDS011;6085;49.452;8.502;2023-08-30T23:28:13;1.48;;;1.38;;
12048;SDS011;6085;49.452;8.502;2023-08-30T23:32:15;1.50;;;1.40;;
12048;SDS011;6085;49.452;8.502;2023-08-30T23:36:21;1.38;;;1.23;;
12048;SDS011;6085;49.452;8.502;2023-08-30T23:40:24;1.38;;;1.00;;
12048;SDS011;6085;49.452;8.502;2023-08-30T23:44:26;2.55;;;1.80;;
12048;SDS011;6085;49.452;8.502;2023-08-30T23:48:28;1.20;;;1.20;;
12048;SDS011;6085;49.452;8.502;2023-08-30T23:52:31;2.20;;;1.50;;
12048;SDS011;6085;49.452;8.502;2023-08-30T23:56:33;1.48;;;1.38;;
